Time;durP1;ratioP1;P1;durP2;ratioP2;P2;SDS_P1;SDS_P2;PMS_P1;PMS_P2;Temp;Humidity;BMP_temperature;BMP_pressure;BME280_temperature;BME280_humidity;BME280_pressure;Samples;Min_cycle;Max_cycle;Signal;HPM_P1;HPM_P2
2021/08/03 00:01:04;;;;;;;2.92;1.50;;;15.00;99.90;;;;;;5013748;28;20061;-75
2021/08/03 00:03:37;;;;;;;1.50;1.40;;;15.00;99.90;;;;;;5023510;28;20033;-74
2021/08/03 00:06:14;;;;;;;3.58;1.30;;;15.00;99.90;;;;;;5032110;28;20021;-74
2021/08/03 00:08:42;;;;;;;5.47;1.38;;;14.90;99.90;;;;;;5033066;28;20046;-75
2021/08/03 00:11:09;;;;;;;1.85;1.60;;;14.90;99.90;;;;;;5024691;28;20038;-75
2021/08/03 00:13:36;;;;;;;3.70;1.52;;;14.90;99.90;;;;;;5005124;28;20049;-76
2021/08/03 00:16:08;;;;;;;1.40;1.30;;;14.90;99.90;;;;;;5037086;28;20030;-74
2021/08/03 00:18:36;;;;;;;2.17;1.70;;;14.90;99.90;;;;;;5039468;28;20029;-74
2021/08/03 00:21:01;;;;;;;2.22;1.40;;;14.80;99.90;;;;;;5031756;28;20025;-74
2021/08/03 00:23:28;;;;;;;2.70;1.63;;;14.80;99.90;;;;;;5038413;28;20041;-74
2021/08/03 00:25:54;;;;;;;1.88;1.50;;;14.80;99.90;;;;;;5031311;28;20015;-74
2021/08/03 00:28:21;;;;;;;2.03;1.83;;;14.90;99.90;;;;;;5035807;28;20060;-75
2021/08/03 00:30:48;;;;;;;2.05;1.73;;;14.80;99.90;;;;;;5033427;28;20034;-74
2021/08/03 00:33:15;;;;;;;2.80;1.83;;;15.10;99.90;;;;;;5027505;28;20064;-74
2021/08/03 00:35:41;;;;;;;1.73;1.40;;;15.10;99.90;;;;;;5031779;28;20025;-74
2021/08/03 00:38:07;;;;;;;2.42;1.60;;;15.00;99.90;;;;;;5016738;28;20034;-75
2021/08/03 00:40:36;;;;;;;2.20;1.83;;;15.00;99.90;;;;;;5029352;28;20032;-75
2021/08/03 00:43:02;;;;;;;3.05;1.65;;;14.90;99.90;;;;;;5017205;28;20037;-75
2021/08/03 00:45:28;;;;;;;3.25;1.65;;;14.90;99.90;;;;;;5008173;28;20032;-75
2021/08/03 00:47:54;;;;;;;1.98;1.48;;;14.90;99.90;;;;;;5034640;28;20102;-74
2021/08/03 00:50:20;;;;;;;1.80;1.40;;;14.90;99.90;;;;;;5020823;28;20034;-74
2021/08/03 00:52:46;;;;;;;2.10;1.90;;;14.90;99.90;;;;;;5028120;28;20061;-73
2021/08/03 00:55:12;;;;;;;3.15;1.80;;;14.90;99.90;;;;;;5027968;28;20041;-75
2021/08/03 00:57:39;;;;;;;2.42;1.27;;;14.90;99.90;;;;;;5028799;28;20036;-75
2021/08/03 01:00:06;;;;;;;2.33;1.48;;;15.00;99.90;;;;;;5028610;28;20037;-73
2021/08/03 01:02:31;;;;;;;3.70;1.38;;;14.90;99.90;;;;;;5032723;28;20026;-76
2021/08/03 01:04:57;;;;;;;2.75;1.30;;;14.90;99.90;;;;;;5027194;28;20041;-74
2021/08/03 01:08:04;;;;;;;1.52;1.42;;;14.90;99.90;;;;;;5020719;28;20386;-75
2021/08/03 01:11:09;;;;;;;1.65;1.20;;;14.80;99.90;;;;;;5034384;28;20036;-74
2021/08/03 01:13:41;;;;;;;1.58;1.30;;;14.80;99.90;;;;;;5015120;28;20043;-75
2021/08/03 01:16:16;;;;;;;1.20;1.10;;;14.90;99.90;;;;;;5020943;28;20112;-75
2021/08/03 01:18:52;;;;;;;5.95;1.90;;;14.90;99.90;;;;;;5014034;28;20033;-75
2021/08/03 01:21:36;;;;;;;2.35;1.42;;;14.90;99.90;;;;;;4998253;28;20030;-74
2021/08/03 01:24:17;;;;;;;1.95;1.17;;;14.80;99.90;;;;;;5028463;28;20033;-75
2021/08/03 01:27:05;;;;;;;2.70;1.70;;;14.90;99.90;;;;;;5029837;28;20033;-75
2021/08/03 01:29:31;;;;;;;1.88;1.40;;;15.10;99.90;;;;;;5071731;22;20053;-73
2021/08/03 01:32:07;;;;;;;2.15;1.30;;;15.00;99.90;;;;;;5052598;28;20025;-73
2021/08/03 01:34:36;;;;;;;1.30;1.13;;;15.00;99.90;;;;;;5048920;28;20025;-73
2021/08/03 01:37:02;;;;;;;1.70;1.45;;;15.20;99.90;;;;;;5059444;28;20457;-74
2021/08/03 01:39:34;;;;;;;5.45;1.50;;;15.20;99.90;;;;;;5045482;28;20068;-74
2021/08/03 01:42:02;;;;;;;2.45;1.42;;;15.30;99.90;;;;;;5037154;28;20049;-73
2021/08/03 01:44:29;;;;;;;3.05;1.55;;;15.30;99.90;;;;;;5033912;28;20052;-73
2021/08/03 01:46:58;;;;;;;1.75;1.58;;;15.30;99.90;;;;;;5037503;28;20476;-74
2021/08/03 01:49:24;;;;;;;2.08;1.50;;;15.20;99.90;;;;;;5038142;28;20021;-73
2021/08/03 01:51:51;;;;;;;2.92;1.38;;;15.20;99.90;;;;;;5039158;28;20029;-74
2021/08/03 01:54:18;;;;;;;1.60;1.50;;;15.20;99.90;;;;;;5037593;28;20422;-73
2021/08/03 01:56:46;;;;;;;1.98;1.40;;;15.10;99.90;;;;;;5031597;28;20104;-73
2021/08/03 01:59:14;;;;;;;1.38;1.27;;;15.10;99.90;;;;;;5033419;28;20026;-73
2021/08/03 02:01:40;;;;;;;2.88;1.80;;;14.80;99.90;;;;;;5033821;28;20025;-73
2021/08/03 02:04:07;;;;;;;1.48;1.38;;;14.60;99.90;;;;;;5033545;28;20497;-72
2021/08/03 02:06:36;;;;;;;1.70;1.60;;;14.50;99.90;;;;;;5044807;28;20029;-73
2021/08/03 02:09:02;;;;;;;4.45;1.65;;;14.40;99.90;;;;;;5052724;28;20048;-73
2021/08/03 02:11:30;;;;;;;1.73;1.60;;;14.40;99.90;;;;;;5052208;28;20036;-73
2021/08/03 02:13:57;;;;;;;1.50;1.40;;;14.40;99.90;;;;;;5033628;28;20079;-73
2021/08/03 02:16:24;;;;;;;3.55;1.70;;;14.30;99.90;;;;;;5033557;28;20057;-73
2021/08/03 02:18:50;;;;;;;5.07;2.15;;;14.20;99.90;;;;;;5016225;28;20045;-73
2021/08/03 02:21:17;;;;;;;6.10;1.60;;;14.20;99.90;;;;;;5052956;28;20021;-73
2021/08/03 02:23:43;;;;;;;1.83;1.35;;;14.20;99.90;;;;;;5045109;28;20041;-73
2021/08/03 02:26:10;;;;;;;5.45;1.88;;;14.20;99.90;;;;;;5034714;28;20071;-73
2021/08/03 02:28:36;;;;;;;2.10;1.90;;;14.20;99.90;;;;;;5036390;28;20460;-74
2021/08/03 02:31:09;;;;;;;2.00;1.70;;;14.20;99.90;;;;;;5040707;28;20034;-74
2021/08/03 02:33:44;;;;;;;1.73;1.63;;;14.30;99.90;;;;;;5033671;28;20543;-74
2021/08/03 02:36:16;;;;;;;1.75;1.42;;;14.30;99.90;;;;;;5035932;28;20508;-74
2021/08/03 02:38:45;;;;;;;3.70;1.90;;;14.30;99.90;;;;;;5033123;28;20456;-74
2021/08/03 02:41:11;;;;;;;2.67;1.70;;;14.30;99.90;;;;;;5033008;28;20029;-74
2021/08/03 02:43:37;;;;;;;1.58;1.23;;;14.40;99.90;;;;;;5032699;28;20473;-74
2021/08/03 02:46:05;;;;;;;3.17;1.83;;;14.50;99.90;;;;;;5035586;28;20022;-74
2021/08/03 02:48:32;;;;;;;2.13;1.63;;;14.40;99.90;;;;;;5041438;28;20036;-74
2021/08/03 02:50:59;;;;;;;4.20;2.17;;;14.50;99.90;;;;;;5052083;28;20051;-74
2021/08/03 02:53:30;;;;;;;2.22;2.00;;;14.60;99.90;;;;;;5035306;28;20037;-75
2021/08/03 02:56:02;;;;;;;2.05;1.60;;;14.60;99.90;;;;;;5032695;28;20059;-74
2021/08/03 02:58:37;;;;;;;4.93;1.98;;;14.50;99.90;;;;;;5023316;28;20037;-74
2021/08/03 03:01:05;;;;;;;2.83;1.80;;;14.50;99.90;;;;;;5033123;28;20040;-73
2021/08/03 03:03:33;;;;;;;4.22;2.03;;;14.70;99.90;;;;;;5032788;28;20072;-74
2021/08/03 03:06:06;;;;;;;3.65;2.03;;;14.80;99.90;;;;;;5032795;28;20025;-74
2021/08/03 03:08:35;;;;;;;3.78;1.88;;;14.80;99.90;;;;;;5032886;28;20029;-74
2021/08/03 03:11:04;;;;;;;2.95;2.20;;;14.70;99.90;;;;;;5043238;28;20028;-73
2021/08/03 03:13:43;;;;;;;4.85;2.13;;;14.60;99.90;;;;;;5034810;28;20025;-74
2021/08/03 03:16:12;;;;;;;5.43;2.13;;;14.50;99.90;;;;;;5048800;28;20535;-74
2021/08/03 03:18:38;;;;;;;4.00;2.40;;;14.50;99.90;;;;;;5041550;28;20071;-75
2021/08/03 03:21:04;;;;;;;3.33;2.00;;;14.40;99.90;;;;;;5051490;28;20056;-72
2021/08/03 03:23:32;;;;;;;2.17;1.92;;;14.40;99.90;;;;;;5046522;28;20045;-73
2021/08/03 03:25:58;;;;;;;4.00;2.65;;;14.40;99.90;;;;;;5035835;28;20363;-73
2021/08/03 03:28:27;;;;;;;5.93;2.60;;;14.40;99.90;;;;;;5031814;28;20029;-73
2021/08/03 03:30:53;;;;;;;3.08;2.63;;;14.40;99.90;;;;;;5042656;28;20024;-73
2021/08/03 03:33:19;;;;;;;5.90;2.30;;;14.40;99.90;;;;;;5032944;28;20068;-73
2021/08/03 03:35:47;;;;;;;3.15;2.03;;;14.40;99.90;;;;;;5046458;28;20021;-73
2021/08/03 03:38:16;;;;;;;2.75;2.20;;;14.30;99.90;;;;;;5060768;28;20033;-73
2021/08/03 03:40:46;;;;;;;6.03;3.03;;;14.30;99.90;;;;;;5035140;28;20108;-74
2021/08/03 03:43:12;;;;;;;6.82;2.88;;;14.30;99.90;;;;;;5032137;28;20389;-75
2021/08/03 03:45:41;;;;;;;6.35;3.63;;;14.30;99.90;;;;;;5032122;28;20028;-74
2021/08/03 03:48:12;;;;;;;3.40;2.75;;;14.20;99.90;;;;;;5032178;28;20549;-73
2021/08/03 03:50:59;;;;;;;5.80;2.30;;;14.30;99.90;;;;;;5032064;28;20013;-72
2021/08/03 03:53:32;;;;;;;8.25;2.95;;;14.40;99.90;;;;;;5031958;28;20043;-74
2021/08/03 03:56:01;;;;;;;4.93;2.00;;;14.40;99.90;;;;;;5032133;28;20290;-73
2021/08/03 03:58:29;;;;;;;5.63;2.17;;;14.30;99.90;;;;;;5031712;28;20386;-73
2021/08/03 04:00:56;;;;;;;5.28;1.75;;;14.20;99.90;;;;;;5032291;28;20104;-72
2021/08/03 04:03:24;;;;;;;2.80;1.90;;;14.10;99.90;;;;;;5031489;28;20493;-74
2021/08/03 04:05:50;;;;;;;5.55;1.90;;;14.20;99.90;;;;;;5031420;28;20112;-74
2021/08/03 04:08:16;;;;;;;4.47;2.05;;;14.20;99.90;;;;;;5031508;28;20029;-73
2021/08/03 04:10:42;;;;;;;2.65;1.45;;;14.20;99.90;;;;;;5031791;28;20037;-74
2021/08/03 04:13:09;;;;;;;2.45;1.77;;;14.20;99.90;;;;;;5043423;28;20115;-73
2021/08/03 04:15:35;;;;;;;3.13;1.55;;;14.20;99.90;;;;;;5032525;28;20035;-74
2021/08/03 04:18:01;;;;;;;2.20;1.63;;;14.20;99.90;;;;;;5051016;28;20025;-72
2021/08/03 04:20:27;;;;;;;4.50;1.50;;;14.40;99.90;;;;;;5049587;28;20027;-72
2021/08/03 04:22:53;;;;;;;5.80;1.98;;;14.60;99.90;;;;;;5053925;28;20392;-73
2021/08/03 04:25:19;;;;;;;1.90;1.50;;;14.60;99.90;;;;;;5056503;28;20033;-72
2021/08/03 04:27:45;;;;;;;3.90;1.90;;;14.70;99.90;;;;;;5035321;28;20492;-72
2021/08/03 04:30:13;;;;;;;1.95;1.42;;;14.70;99.90;;;;;;5052909;28;20036;-72
2021/08/03 04:32:39;;;;;;;3.45;1.67;;;14.80;99.90;;;;;;5046587;28;20017;-73
2021/08/03 04:35:06;;;;;;;2.40;1.65;;;14.70;99.90;;;;;;5037531;28;20175;-73
2021/08/03 04:37:42;;;;;;;2.58;1.60;;;14.60;99.90;;;;;;5055348;28;20297;-73
2021/08/03 04:40:08;;;;;;;1.83;1.70;;;14.60;99.90;;;;;;5060496;28;20031;-73
2021/08/03 04:42:34;;;;;;;2.92;1.42;;;14.50;99.90;;;;;;5049117;28;20441;-73
2021/08/03 04:45:00;;;;;;;2.72;1.85;;;14.50;99.90;;;;;;5043906;28;20048;-73
2021/08/03 04:47:26;;;;;;;1.55;1.30;;;14.40;99.90;;;;;;5058479;28;20040;-73
2021/08/03 04:49:51;;;;;;;1.60;1.40;;;14.40;99.90;;;;;;5055157;28;20139;-74
2021/08/03 04:52:17;;;;;;;2.45;1.50;;;14.40;99.90;;;;;;5043869;28;20025;-74
2021/08/03 04:54:42;;;;;;;3.78;1.70;;;14.40;99.90;;;;;;5035244;28;20018;-73
2021/08/03 04:57:08;;;;;;;3.88;1.75;;;14.50;99.90;;;;;;5035370;28;20033;-74
2021/08/03 04:59:34;;;;;;;3.50;1.75;;;14.50;99.90;;;;;;5048546;28;20017;-74
2021/08/03 05:02:01;;;;;;;4.35;1.58;;;14.60;99.90;;;;;;5041696;28;20448;-73
2021/08/03 05:04:29;;;;;;;4.55;2.45;;;14.50;99.90;;;;;;5034934;28;20017;-74
2021/08/03 05:06:55;;;;;;;5.47;1.98;;;14.50;99.90;;;;;;5017093;28;20493;-74
2021/08/03 05:09:20;;;;;;;2.47;1.80;;;14.70;99.90;;;;;;5034476;28;20065;-72
2021/08/03 05:11:46;;;;;;;5.93;2.20;;;15.00;99.90;;;;;;5043962;28;20025;-72
2021/08/03 05:14:11;;;;;;;2.35;1.80;;;15.00;99.90;;;;;;5050559;28;20075;-73
2021/08/03 05:16:37;;;;;;;3.70;1.45;;;15.00;99.90;;;;;;5046813;28;20017;-74
2021/08/03 05:19:03;;;;;;;7.97;2.35;;;15.10;99.90;;;;;;5034533;28;20033;-74
2021/08/03 05:21:28;;;;;;;3.95;2.70;;;15.10;99.90;;;;;;5037648;28;20036;-75
2021/08/03 05:23:54;;;;;;;6.45;2.78;;;15.20;99.90;;;;;;5041682;28;20017;-73
2021/08/03 05:26:20;;;;;;;6.28;3.38;;;15.20;99.90;;;;;;5037856;28;20041;-74
2021/08/03 05:28:46;;;;;;;5.75;2.25;;;15.10;99.90;;;;;;5045548;28;20090;-74
2021/08/03 05:31:13;;;;;;;8.32;3.72;;;15.10;99.90;;;;;;5051741;28;20515;-74
2021/08/03 05:33:39;;;;;;;5.45;2.80;;;15.10;99.90;;;;;;5027732;28;20032;-74
2021/08/03 05:36:04;;;;;;;3.75;2.20;;;15.00;99.90;;;;;;5038606;28;20025;-74
2021/08/03 05:38:30;;;;;;;5.78;2.33;;;15.00;99.90;;;;;;5034217;28;20017;-74
2021/08/03 05:40:55;;;;;;;13.13;3.50;;;15.00;99.90;;;;;;5034353;28;20053;-74
2021/08/03 05:43:21;;;;;;;6.38;2.15;;;15.00;99.90;;;;;;5034479;28;20025;-75
2021/08/03 05:45:46;;;;;;;7.45;3.33;;;15.00;99.90;;;;;;5033788;28;20055;-74
2021/08/03 05:48:14;;;;;;;6.80;2.20;;;15.30;99.90;;;;;;5033705;28;20044;-73
2021/08/03 05:50:39;;;;;;;6.70;2.53;;;15.30;99.90;;;;;;5033985;28;20033;-73
2021/08/03 05:53:05;;;;;;;4.78;2.00;;;15.30;99.90;;;;;;5042104;28;20091;-73
2021/08/03 05:55:30;;;;;;;5.20;2.08;;;15.30;99.90;;;;;;5034037;28;20034;-73
2021/08/03 05:57:56;;;;;;;5.53;1.90;;;15.40;99.90;;;;;;5040269;28;20028;-74
2021/08/03 06:00:21;;;;;;;7.68;1.88;;;15.40;99.90;;;;;;5033979;28;20374;-74
2021/08/03 06:02:47;;;;;;;6.40;1.90;;;15.50;99.90;;;;;;5035473;28;20029;-74
2021/08/03 06:05:14;;;;;;;6.35;2.20;;;15.60;99.90;;;;;;5016412;28;20458;-74
2021/08/03 06:07:44;;;;;;;2.75;1.63;;;15.60;99.90;;;;;;5035008;28;20086;-73
2021/08/03 06:10:15;;;;;;;3.35;1.48;;;15.70;99.90;;;;;;5034159;28;20049;-74
2021/08/03 06:12:44;;;;;;;4.00;2.78;;;15.70;99.90;;;;;;5034249;28;20029;-73
2021/08/03 06:15:10;;;;;;;1.73;1.35;;;15.90;99.90;;;;;;5027804;28;20039;-74
2021/08/03 06:17:38;;;;;;;3.72;1.60;;;16.10;99.90;;;;;;5034103;28;20025;-74
2021/08/03 06:20:06;;;;;;;6.93;1.50;;;16.10;99.90;;;;;;5042764;28;20048;-75
2021/08/03 06:22:36;;;;;;;4.03;1.40;;;16.30;99.90;;;;;;5052834;28;20029;-74
2021/08/03 06:25:03;;;;;;;5.47;1.63;;;16.20;99.90;;;;;;5044005;28;20033;-74
2021/08/03 06:27:30;;;;;;;4.93;2.10;;;16.40;99.90;;;;;;5039284;28;20028;-74
2021/08/03 06:30:03;;;;;;;4.32;1.45;;;16.60;99.90;;;;;;5043691;28;20048;-73
2021/08/03 06:32:30;;;;;;;2.67;1.30;;;16.60;99.90;;;;;;5034705;28;20434;-73
2021/08/03 06:34:56;;;;;;;4.30;1.70;;;16.70;99.90;;;;;;5042599;28;20026;-74
2021/08/03 06:37:22;;;;;;;3.17;1.67;;;16.80;99.90;;;;;;5064097;28;20025;-73
2021/08/03 06:39:47;;;;;;;2.90;1.90;;;16.80;99.90;;;;;;5046842;28;20040;-74
2021/08/03 06:42:27;;;;;;;3.47;1.33;;;17.00;99.90;;;;;;5034540;28;20033;-73
2021/08/03 06:45:02;;;;;;;4.78;1.70;;;17.20;99.90;;;;;;5033076;28;20024;-74
2021/08/03 06:47:43;;;;;;;6.25;2.08;;;17.30;99.90;;;;;;5050817;28;20025;-73
2021/08/03 06:50:09;;;;;;;;;;;18.00;99.90;;;;;;5040677;28;20025;-73
2021/08/03 06:52:36;;;;;;;2.47;1.60;;;18.20;99.90;;;;;;5037671;28;19920;-74
2021/08/03 06:55:05;;;;;;;3.30;1.73;;;18.70;99.90;;;;;;5039511;28;20032;-74
2021/08/03 06:57:35;;;;;;;2.22;1.13;;;18.30;99.90;;;;;;5034084;28;20021;-72
2021/08/03 07:00:08;;;;;;;1.38;1.02;;;18.50;99.90;;;;;;5044813;28;20053;-73
2021/08/03 07:02:43;;;;;;;5.70;1.55;;;19.10;99.90;;;;;;5034487;28;20033;-73
2021/08/03 07:05:16;;;;;;;4.43;1.40;;;19.30;99.90;;;;;;5033078;28;20029;-73
2021/08/03 07:07:43;;;;;;;1.50;1.38;;;19.10;99.90;;;;;;5028454;28;20025;-74
2021/08/03 07:10:09;;;;;;;5.80;1.45;;;18.80;99.90;;;;;;5037029;28;20392;-72
2021/08/03 07:12:35;;;;;;;6.05;1.52;;;18.60;99.90;;;;;;5033843;28;20401;-73
2021/08/03 07:15:02;;;;;;;3.17;1.45;;;18.50;99.90;;;;;;5014966;28;20022;-73
2021/08/03 07:17:30;;;;;;;6.80;1.67;;;18.40;99.90;;;;;;5036099;28;20073;-73
2021/08/03 07:20:01;;;;;;;5.45;2.00;;;18.50;99.90;;;;;;5028335;28;20045;-73
2021/08/03 07:22:27;;;;;;;3.40;1.77;;;18.70;99.90;;;;;;5031303;28;20029;-73
2021/08/03 07:24:53;;;;;;;8.15;1.83;;;18.90;99.90;;;;;;5026615;28;20476;-73
2021/08/03 07:27:19;;;;;;;5.07;1.77;;;19.10;99.90;;;;;;5041655;28;20033;-73
2021/08/03 07:29:45;;;;;;;2.80;1.58;;;19.00;99.90;;;;;;5048558;28;20485;-73
2021/08/03 07:32:14;;;;;;;2.47;1.30;;;19.00;99.90;;;;;;5053253;28;20080;-74
2021/08/03 07:34:40;;;;;;;3.45;1.88;;;19.70;99.90;;;;;;5052414;28;20033;-73
2021/08/03 07:37:07;;;;;;;3.00;1.70;;;19.30;99.90;;;;;;5033625;28;20060;-73
2021/08/03 07:39:34;;;;;;;2.35;2.00;;;19.80;99.90;;;;;;5062794;28;20045;-73
2021/08/03 07:42:00;;;;;;;3.33;2.30;;;20.10;99.90;;;;;;5030402;28;20040;-73
2021/08/03 07:44:26;;;;;;;2.33;1.92;;;20.10;99.90;;;;;;5033924;28;20025;-73
2021/08/03 07:46:52;;;;;;;3.83;2.00;;;20.10;99.90;;;;;;5034399;28;20528;-72
2021/08/03 07:49:18;;;;;;;6.70;1.73;;;20.00;99.90;;;;;;5034358;28;20043;-72
2021/08/03 07:51:45;;;;;;;4.30;1.60;;;20.00;99.90;;;;;;5015856;28;20029;-73
2021/08/03 07:54:11;;;;;;;4.15;1.70;;;20.10;99.90;;;;;;5033301;28;20433;-73
2021/08/03 07:56:36;;;;;;;11.80;1.83;;;20.10;99.90;;;;;;5043237;28;20083;-73
2021/08/03 07:59:02;;;;;;;2.08;1.85;;;20.00;99.90;;;;;;5036862;28;20056;-72
2021/08/03 08:01:27;;;;;;;8.45;2.30;;;19.70;99.90;;;;;;5019248;28;20044;-73
2021/08/03 08:03:53;;;;;;;4.57;2.10;;;19.80;99.90;;;;;;5037326;28;20075;-73
2021/08/03 08:06:19;;;;;;;3.85;2.58;;;19.90;99.90;;;;;;5056812;28;20021;-73
2021/08/03 08:08:44;;;;;;;1.65;1.20;;;20.00;99.90;;;;;;5057318;28;20025;-74
2021/08/03 08:11:11;;;;;;;1.85;1.13;;;19.90;99.90;;;;;;5048484;28;20033;-73
2021/08/03 08:13:37;;;;;;;1.95;0.80;;;19.90;99.90;;;;;;5037314;28;20025;-73
2021/08/03 08:16:03;;;;;;;3.90;1.13;;;20.00;99.90;;;;;;5025666;28;20037;-73
2021/08/03 08:18:29;;;;;;;3.03;1.30;;;20.10;99.90;;;;;;5047014;28;20030;-73
2021/08/03 08:20:54;;;;;;;1.08;0.77;;;20.40;99.90;;;;;;5056885;28;20103;-72
2021/08/03 08:23:21;;;;;;;2.53;0.80;;;20.50;99.90;;;;;;5054891;28;20039;-73
2021/08/03 08:25:46;;;;;;;2.38;0.90;;;20.60;99.90;;;;;;5045880;28;20033;-74
2021/08/03 08:28:12;;;;;;;4.70;1.00;;;20.70;99.90;;;;;;5055935;28;20059;-76
2021/08/03 08:30:39;;;;;;;1.25;0.80;;;20.60;99.90;;;;;;5037838;28;20083;-74
2021/08/03 08:33:04;;;;;;;1.00;0.70;;;20.50;99.90;;;;;;5036426;28;20120;-73
2021/08/03 08:35:31;;;;;;;4.00;0.80;;;20.50;99.90;;;;;;5033090;28;20461;-74
2021/08/03 08:37:56;;;;;;;2.50;0.80;;;20.40;99.90;;;;;;5037796;28;20049;-73
2021/08/03 08:40:22;;;;;;;1.10;0.80;;;20.50;99.90;;;;;;5051404;28;20055;-73
2021/08/03 08:42:48;;;;;;;3.05;0.80;;;20.60;99.90;;;;;;5036469;28;20064;-74
2021/08/03 08:45:15;;;;;;;2.53;2.05;;;20.70;99.90;;;;;;5017826;28;20040;-73
2021/08/03 08:47:46;;;;;;;1.33;0.98;;;20.80;99.90;;;;;;5049124;28;20025;-74
2021/08/03 08:50:12;;;;;;;;;;;21.00;99.90;;;;;;5044388;28;20025;-74
2021/08/03 08:52:40;;;;;;;1.17;0.88;;;21.10;99.90;;;;;;5059566;28;19912;-73
2021/08/03 08:55:08;;;;;;;3.63;0.90;;;21.10;99.90;;;;;;5044714;28;20053;-74
2021/08/03 08:57:35;;;;;;;2.13;1.15;;;21.00;99.90;;;;;;5037583;28;20022;-74
2021/08/03 09:00:00;;;;;;;5.55;1.08;;;21.00;99.90;;;;;;5036184;28;20104;-74
2021/08/03 09:02:44;;;;;;;4.13;1.08;;;21.10;99.90;;;;;;5027669;28;20195;-74
2021/08/03 09:05:15;;;;;;;4.57;0.80;;;21.20;99.90;;;;;;5019469;28;20025;-74
2021/08/03 09:07:52;;;;;;;1.15;0.95;;;21.40;99.90;;;;;;5037519;28;20037;-73
2021/08/03 09:10:33;;;;;;;4.28;0.80;;;21.50;99.90;;;;;;5059781;28;20032;-73
2021/08/03 09:13:04;;;;;;;;;;;22.10;99.90;;;;;;5057479;28;20039;-74
2021/08/03 09:15:32;;;;;;;1.10;1.00;;;21.70;99.90;;;;;;5035467;28;19980;-73
2021/08/03 09:18:09;;;;;;;0.60;0.60;;;21.60;99.90;;;;;;5035367;28;20048;-73
2021/08/03 09:20:35;;;;;;;1.30;0.75;;;21.00;99.90;;;;;;5035322;28;20053;-73
2021/08/03 09:23:01;;;;;;;1.60;0.70;;;20.80;99.90;;;;;;5018624;28;20052;-72
2021/08/03 09:25:26;;;;;;;2.13;0.82;;;20.50;99.90;;;;;;5042899;28;20113;-73
2021/08/03 09:27:52;;;;;;;1.42;0.95;;;20.20;99.90;;;;;;5055096;28;20028;-73
2021/08/03 09:30:18;;;;;;;2.75;1.00;;;19.70;99.90;;;;;;5034875;28;20370;-74
2021/08/03 09:32:45;;;;;;;1.40;1.02;;;19.30;99.90;;;;;;5020950;28;20029;-72
2021/08/03 09:35:11;;;;;;;0.90;0.80;;;18.90;99.90;;;;;;5056094;28;20044;-73
2021/08/03 09:37:38;;;;;;;1.60;0.85;;;18.60;99.90;;;;;;5049744;28;20076;-72
2021/08/03 09:40:21;;;;;;;0.77;0.77;;;18.20;99.90;;;;;;5035980;28;20103;-73
2021/08/03 09:43:11;;;;;;;0.50;0.50;;;17.90;99.90;;;;;;5035450;28;20497;-73
2021/08/03 09:45:42;;;;;;;0.70;0.70;;;17.40;99.90;;;;;;5024699;28;20033;-72
2021/08/03 09:48:09;;;;;;;2.15;1.00;;;17.10;99.90;;;;;;5034379;28;20028;-74
2021/08/03 09:50:57;;;;;;;1.58;0.63;;;16.80;99.90;;;;;;5034554;28;20033;-73
2021/08/03 09:53:41;;;;;;;1.05;0.80;;;16.60;99.90;;;;;;5035078;28;20028;-73
2021/08/03 09:56:12;;;;;;;1.00;0.80;;;16.70;99.90;;;;;;5019839;28;20026;-72
2021/08/03 09:58:53;;;;;;;;;;;16.70;99.90;;;;;;5034509;28;20025;-73
2021/08/03 10:01:30;;;;;;;1.00;0.60;;;16.50;99.90;;;;;;5043783;28;19908;-73
2021/08/03 10:03:59;;;;;;;0.90;0.60;;;16.50;99.90;;;;;;5053935;28;20044;-72
2021/08/03 10:06:25;;;;;;;3.22;0.88;;;16.50;99.90;;;;;;5053704;28;20028;-74
2021/08/03 10:08:53;;;;;;;1.40;0.80;;;16.70;99.90;;;;;;5047267;28;20036;-72
2021/08/03 10:11:19;;;;;;;0.68;0.68;;;16.20;99.90;;;;;;5038981;28;20428;-74
2021/08/03 10:13:45;;;;;;;1.30;0.70;;;16.30;99.90;;;;;;5034490;28;20095;-72
2021/08/03 10:16:12;;;;;;;1.25;0.70;;;16.30;99.90;;;;;;5034288;28;20113;-73
2021/08/03 10:18:42;;;;;;;1.85;0.98;;;16.50;99.90;;;;;;5015061;28;20026;-73
2021/08/03 10:21:18;;;;;;;1.50;1.20;;;16.60;99.90;;;;;;5027652;28;20035;-72
2021/08/03 10:23:45;;;;;;;0.98;0.77;;;16.60;99.90;;;;;;5033722;28;20120;-74
2021/08/03 10:26:13;;;;;;;1.02;0.80;;;16.90;99.90;;;;;;5040298;28;20056;-73
2021/08/03 10:28:40;;;;;;;1.70;1.00;;;16.90;99.90;;;;;;5033526;28;20040;-73
2021/08/03 10:31:38;;;;;;;2.47;0.68;;;16.70;99.90;;;;;;5036169;28;20067;-74
2021/08/03 10:34:04;;;;;;;1.88;0.70;;;17.40;99.90;;;;;;5033856;28;20035;-73
2021/08/03 10:36:36;;;;;;;1.92;0.70;;;17.30;99.90;;;;;;5033893;28;20021;-73
2021/08/03 10:39:18;;;;;;;0.88;0.63;;;17.50;99.90;;;;;;5033565;28;20029;-73
2021/08/03 10:41:59;;;;;;;1.27;0.80;;;17.70;99.90;;;;;;5033309;28;20104;-72
2021/08/03 10:44:50;;;;;;;0.60;0.60;;;18.00;99.90;;;;;;5037808;28;20041;-73
2021/08/03 10:47:33;;;;;;;0.80;0.70;;;18.00;99.90;;;;;;5051937;28;20029;-73
2021/08/03 10:50:00;;;;;;;2.60;0.70;;;18.20;99.90;;;;;;5052314;28;20029;-74
2021/08/03 10:52:44;;;;;;;2.15;0.93;;;18.40;99.90;;;;;;5050952;28;20032;-73
2021/08/03 10:55:37;;;;;;;1.40;0.95;;;18.60;99.90;;;;;;5033675;28;20029;-73
2021/08/03 10:58:09;;;;;;;2.38;0.90;;;19.40;99.90;;;;;;5034393;28;20036;-72
2021/08/03 11:00:58;;;;;;;1.00;0.68;;;19.00;99.90;;;;;;5024394;28;20032;-73
2021/08/03 11:03:35;;;;;;;2.85;0.75;;;19.20;99.90;;;;;;5033256;28;20036;-72
2021/08/03 11:06:06;;;;;;;0.70;0.70;;;19.80;99.90;;;;;;5036085;28;20100;-73
2021/08/03 11:08:57;;;;;;;2.45;0.82;;;19.70;99.90;;;;;;5036016;28;20025;-72
2021/08/03 11:11:28;;;;;;;1.17;0.70;;;20.30;99.90;;;;;;5030069;28;20036;-73
2021/08/03 11:13:55;;;;;;;2.78;1.00;;;20.30;99.90;;;;;;5032805;28;20367;-72
2021/08/03 11:16:23;;;;;;;2.63;0.85;;;19.50;99.90;;;;;;5032744;28;20021;-74
2021/08/03 11:18:52;;;;;;;1.05;0.90;;;19.70;99.90;;;;;;5032871;28;20037;-74
2021/08/03 11:21:25;;;;;;;0.82;0.60;;;19.40;99.90;;;;;;5032569;28;20021;-73
2021/08/03 11:24:15;;;;;;;1.10;0.75;;;19.60;99.90;;;;;;5035423;28;20063;-74
2021/08/03 11:26:57;;;;;;;0.80;0.60;;;20.20;99.90;;;;;;5016398;28;20056;-74
2021/08/03 11:29:24;;;;;;;1.02;0.80;;;20.00;99.90;;;;;;5038944;28;20058;-74
2021/08/03 11:31:55;;;;;;;1.73;1.00;;;19.50;99.90;;;;;;5020110;28;20370;-73
2021/08/03 11:34:27;;;;;;;;;;;19.20;99.90;;;;;;5037420;28;20022;-72
2021/08/03 11:37:04;;;;;;;2.30;1.17;;;19.50;99.90;;;;;;5039151;28;19909;-72
2021/08/03 11:39:36;;;;;;;4.38;1.25;;;19.40;99.90;;;;;;5034025;28;20029;-73
2021/08/03 11:42:02;;;;;;;2.55;1.30;;;19.50;99.90;;;;;;5016479;28;20433;-73
2021/08/03 11:44:28;;;;;;;2.22;1.30;;;19.50;99.90;;;;;;5034892;28;20033;-73
2021/08/03 11:47:06;;;;;;;3.17;1.30;;;20.00;99.90;;;;;;5033815;28;20047;-73
2021/08/03 11:49:35;;;;;;;2.22;1.25;;;20.30;99.90;;;;;;5050379;28;20082;-73
2021/08/03 11:52:26;;;;;;;2.50;1.38;;;20.30;99.90;;;;;;5034578;28;20031;-73
2021/08/03 11:54:55;;;;;;;2.33;1.17;;;20.60;99.90;;;;;;5052647;28;20033;-73
2021/08/03 11:57:41;;;;;;;1.15;0.93;;;20.50;99.90;;;;;;5052660;28;20025;-73
2021/08/03 12:00:21;;;;;;;2.83;1.67;;;20.20;99.90;;;;;;5033074;28;20026;-73
2021/08/03 12:02:50;;;;;;;1.77;1.00;;;20.40;99.90;;;;;;5034783;28;20024;-72
2021/08/03 12:05:17;;;;;;;1.95;1.17;;;20.40;99.90;;;;;;5015057;28;20037;-74
2021/08/03 12:07:53;;;;;;;5.03;2.03;;;20.40;99.90;;;;;;5033169;28;20379;-73
2021/08/03 12:10:21;;;;;;;5.15;1.20;;;20.60;99.90;;;;;;5036061;28;20136;-74
2021/08/03 12:12:47;;;;;;;2.72;1.55;;;20.60;99.90;;;;;;5045840;28;20040;-73
2021/08/03 12:15:19;;;;;;;1.90;1.25;;;20.80;99.90;;;;;;5022142;28;20392;-74
2021/08/03 12:17:45;;;;;;;1.60;0.93;;;20.80;99.90;;;;;;5032915;28;20025;-74
2021/08/03 12:20:22;;;;;;;2.75;1.10;;;20.90;99.90;;;;;;5032501;28;20037;-74
2021/08/03 12:22:47;;;;;;;3.22;2.75;;;21.30;99.90;;;;;;5032853;28;20074;-74
2021/08/03 12:25:13;;;;;;;5.25;1.20;;;21.30;99.90;;;;;;5036984;28;20025;-73
2021/08/03 12:27:41;;;;;;;2.15;1.23;;;21.10;99.90;;;;;;5033005;28;20017;-74
2021/08/03 12:30:27;;;;;;;1.13;1.02;;;21.10;99.90;;;;;;5040255;28;20033;-73
2021/08/03 12:32:53;;;;;;;1.10;0.90;;;21.20;99.90;;;;;;5045625;28;20066;-72
2021/08/03 12:35:19;;;;;;;1.50;0.82;;;21.00;99.90;;;;;;5055733;28;20037;-74
2021/08/03 12:37:44;;;;;;;2.67;0.93;;;21.00;99.90;;;;;;5035955;28;20017;-74
2021/08/03 12:40:33;;;;;;;3.38;1.00;;;20.90;99.90;;;;;;5017087;28;20037;-73
2021/08/03 12:43:00;;;;;;;1.42;0.98;;;20.80;99.90;;;;;;5038116;28;20087;-73
2021/08/03 12:45:26;;;;;;;3.33;0.82;;;20.90;99.90;;;;;;5042975;28;20107;-73
2021/08/03 12:48:03;;;;;;;1.23;0.90;;;20.80;99.90;;;;;;5060415;28;20135;-73
2021/08/03 12:50:44;;;;;;;5.78;0.90;;;21.10;99.90;;;;;;5022168;28;20091;-73
2021/08/03 12:53:22;;;;;;;1.48;0.75;;;21.20;99.90;;;;;;5036101;28;20037;-73
2021/08/03 12:55:53;;;;;;;0.90;0.85;;;21.60;99.90;;;;;;5035140;28;20032;-73
2021/08/03 12:58:44;;;;;;;3.67;0.80;;;21.80;99.90;;;;;;5052412;28;20021;-74
2021/08/03 13:01:15;;;;;;;1.58;0.88;;;21.80;99.90;;;;;;5053759;28;20017;-74